Time;durP1;ratioP1;P1;durP2;ratioP2;P2;SDS_P1;SDS_P2;PMS_P1;PMS_P2;Temp;Humidity;BMP_temperature;BMP_pressure;BME280_temperature;BME280_humidity;BME280_pressure;Samples;Min_cycle;Max_cycle;Signal;HPM_P1;HPM_P2
2022/07/02 00:02:18;;;;;;;42.97;29.70;;;17.50;99.90;;;;;;4433000;28;658529;-65
2022/07/02 00:05:07;;;;;;;46.30;29.70;;;17.10;99.90;;;;;;4410027;28;659067;-64
2022/07/02 00:07:55;;;;;;;45.00;29.57;;;17.10;99.90;;;;;;4429926;28;658380;-65
2022/07/02 00:10:42;;;;;;;46.03;30.63;;;17.10;99.90;;;;;;4408983;28;659273;-64
2022/07/02 00:13:29;;;;;;;43.53;30.17;;;16.90;99.90;;;;;;4432128;28;658626;-64
2022/07/02 00:16:16;;;;;;;39.80;27.13;;;17.00;99.90;;;;;;4413256;28;660670;-64
2022/07/02 00:19:04;;;;;;;44.73;28.13;;;16.90;99.90;;;;;;4432422;28;658943;-64
2022/07/02 00:21:51;;;;;;;40.47;27.67;;;16.90;99.90;;;;;;4413169;28;658565;-64
2022/07/02 00:28:24;;;;;;;34.77;25.40;;;17.00;99.90;;;;;;4389845;28;658552;-66
2022/07/02 00:31:11;;;;;;;37.97;26.43;;;17.10;99.90;;;;;;4396602;28;659307;-64
2022/07/02 00:33:58;;;;;;;44.95;30.70;;;17.10;99.90;;;;;;4415610;28;659681;-64
2022/07/02 00:36:45;;;;;;;55.00;36.73;;;17.20;99.90;;;;;;4396228;28;658661;-65
2022/07/02 00:39:32;;;;;;;74.13;40.77;;;17.20;99.90;;;;;;4415298;28;660086;-64
2022/07/02 00:42:19;;;;;;;61.53;36.87;;;17.20;99.90;;;;;;4415391;28;658473;-64
2022/07/02 00:45:08;;;;;;;62.53;35.30;;;17.20;99.90;;;;;;4393537;28;660156;-64
2022/07/02 00:47:55;;;;;;;55.33;34.10;;;17.10;99.90;;;;;;4379263;28;658617;-65
2022/07/02 00:50:42;;;;;;;61.03;35.77;;;17.10;99.90;;;;;;4397663;28;659485;-64
2022/07/02 00:53:30;;;;;;;59.67;35.63;;;17.10;99.90;;;;;;4394336;28;658825;-65
2022/07/02 00:56:17;;;;;;;57.43;33.63;;;17.00;99.90;;;;;;4400807;28;659916;-64
2022/07/02 00:59:04;;;;;;;50.50;30.63;;;17.00;99.90;;;;;;4396874;28;659002;-65
2022/07/02 01:01:53;;;;;;;48.77;30.80;;;16.80;99.90;;;;;;4378788;28;658834;-65
2022/07/02 01:04:40;;;;;;;58.50;32.90;;;16.70;99.90;;;;;;4380855;28;658822;-65
2022/07/02 01:07:27;;;;;;;49.33;31.30;;;16.60;99.90;;;;;;4400336;28;658682;-64
2022/07/02 01:10:16;;;;;;;47.23;26.63;;;16.70;99.90;;;;;;4396263;28;658546;-64
2022/07/02 01:13:03;;;;;;;49.43;26.70;;;16.60;99.90;;;;;;4373908;28;659786;-64
2022/07/02 01:15:50;;;;;;;57.93;34.47;;;16.60;99.90;;;;;;4377848;28;659073;-65
2022/07/02 01:18:39;;;;;;;58.50;33.17;;;16.50;99.90;;;;;;4396071;28;658905;-64
2022/07/02 01:21:26;;;;;;;62.73;36.23;;;16.50;99.90;;;;;;4377281;28;658688;-66
2022/07/02 01:24:23;;;;;;;65.25;35.45;;;16.40;99.90;;;;;;4396163;28;658714;-64
2022/07/02 01:27:10;;;;;;;69.30;37.13;;;16.40;99.90;;;;;;4354742;28;659339;-65
2022/07/02 01:29:57;;;;;;;63.20;34.13;;;16.40;99.90;;;;;;4404826;28;660028;-64
2022/07/02 01:32:45;;;;;;;72.03;38.23;;;16.50;99.90;;;;;;4413070;28;658507;-65
2022/07/02 01:35:32;;;;;;;62.27;29.83;;;16.40;99.90;;;;;;4417520;28;659961;-64
2022/07/02 01:38:19;;;;;;;64.80;29.43;;;16.40;99.90;;;;;;4413823;28;658794;-64
2022/07/02 01:44:12;;;;;;;84.40;37.47;;;16.40;99.90;;;;;;4367835;28;659212;-64
2022/07/02 01:46:59;;;;;;;75.20;36.43;;;16.40;99.90;;;;;;4430076;28;658432;-64
2022/07/02 01:49:47;;;;;;;71.63;36.37;;;16.50;99.90;;;;;;4412193;28;658597;-65
2022/07/02 01:52:34;;;;;;;83.73;39.47;;;16.40;99.90;;;;;;4434568;28;659618;-65
2022/07/02 01:55:21;;;;;;;80.43;41.13;;;16.30;99.90;;;;;;4409521;28;658521;-64
2022/07/02 01:58:09;;;;;;;75.87;38.40;;;16.40;99.90;;;;;;4431578;28;659858;-64
2022/07/02 02:00:56;;;;;;;81.70;39.17;;;16.50;99.90;;;;;;4411513;28;658433;-65
2022/07/02 02:03:44;;;;;;;76.97;40.40;;;16.40;99.90;;;;;;4430686;28;658962;-64
2022/07/02 02:06:31;;;;;;;74.93;40.17;;;16.60;99.90;;;;;;4411068;28;659243;-64
2022/07/02 02:09:19;;;;;;;76.53;41.20;;;16.40;99.90;;;;;;4430049;28;659684;-64
2022/07/02 02:12:07;;;;;;;75.30;39.67;;;16.40;99.90;;;;;;4410785;28;658539;-64
2022/07/02 02:14:56;;;;;;;67.23;37.10;;;16.40;99.90;;;;;;4429879;28;658867;-64
2022/07/02 02:17:43;;;;;;;61.20;36.17;;;16.40;99.90;;;;;;4406701;28;658736;-64
2022/07/02 02:20:30;;;;;;;52.63;31.83;;;16.30;99.90;;;;;;4418248;28;658361;-66
2022/07/02 02:23:17;;;;;;;55.43;32.97;;;16.30;99.90;;;;;;4429996;28;659720;-64
2022/07/02 02:26:04;;;;;;;46.80;29.80;;;16.30;99.90;;;;;;4430170;28;658775;-66
2022/07/02 02:28:51;;;;;;;35.80;21.27;;;16.20;99.90;;;;;;4410953;28;659023;-65
2022/07/02 02:31:40;;;;;;;41.77;26.23;;;16.30;99.90;;;;;;4429511;28;658828;-65
2022/07/02 02:34:27;;;;;;;44.43;28.63;;;16.20;99.90;;;;;;4407090;28;658769;-65
2022/07/02 02:37:14;;;;;;;42.80;26.40;;;16.20;99.90;;;;;;4433916;28;658324;-65
2022/07/02 02:40:01;;;;;;;37.20;24.80;;;16.10;99.90;;;;;;4410545;28;658261;-65
2022/07/02 02:42:48;;;;;;;33.67;24.27;;;16.20;99.90;;;;;;4429743;28;659591;-65
2022/07/02 02:45:36;;;;;;;35.67;22.10;;;16.10;99.90;;;;;;4398819;28;658612;-66
2022/07/02 02:48:24;;;;;;;31.93;21.50;;;16.10;99.90;;;;;;4400699;28;658636;-65
2022/07/02 02:51:14;;;;;;;28.00;19.07;;;16.10;99.90;;;;;;4378111;28;658916;-65
2022/07/02 02:54:01;;;;;;;31.17;20.77;;;16.00;99.90;;;;;;4377944;28;660412;-65
2022/07/02 02:56:49;;;;;;;26.87;19.43;;;16.10;99.90;;;;;;4396289;28;658605;-66
2022/07/02 02:59:36;;;;;;;27.70;17.73;;;16.00;99.90;;;;;;4377715;28;658582;-66
2022/07/02 03:02:23;;;;;;;27.70;19.63;;;16.00;99.90;;;;;;4396534;28;659680;-66
2022/07/02 03:05:12;;;;;;;24.33;18.23;;;16.00;99.90;;;;;;4377700;28;659118;-66
2022/07/02 03:07:59;;;;;;;27.23;20.80;;;15.90;99.90;;;;;;4395165;28;658300;-66
2022/07/02 03:10:47;;;;;;;27.07;19.33;;;15.90;99.90;;;;;;4375997;28;658706;-66
2022/07/02 03:13:34;;;;;;;28.27;19.90;;;15.90;99.90;;;;;;4396295;28;658351;-66
2022/07/02 03:16:21;;;;;;;30.70;20.67;;;15.80;99.90;;;;;;4377719;28;658883;-66
2022/07/02 03:19:08;;;;;;;30.97;21.30;;;15.70;99.90;;;;;;4396197;28;660279;-65
2022/07/02 03:21:57;;;;;;;28.87;18.37;;;15.70;99.90;;;;;;4376857;28;658379;-67
2022/07/02 03:24:44;;;;;;;27.27;18.87;;;15.70;99.90;;;;;;4396062;28;658981;-65
2022/07/02 03:27:31;;;;;;;26.87;18.17;;;15.60;99.90;;;;;;4375743;28;658930;-66
2022/07/02 03:30:18;;;;;;;25.90;18.07;;;15.70;99.90;;;;;;4408456;28;659850;-65
2022/07/02 03:33:05;;;;;;;29.13;20.10;;;15.60;99.90;;;;;;4393634;28;659292;-67
2022/07/02 03:35:52;;;;;;;31.27;20.77;;;15.70;99.90;;;;;;4416127;28;658558;-65
2022/07/02 03:38:41;;;;;;;42.50;26.40;;;15.80;99.90;;;;;;4401487;28;658431;-65
2022/07/02 03:41:28;;;;;;;40.00;24.93;;;15.70;99.90;;;;;;4388741;28;658821;-66
2022/07/02 03:44:15;;;;;;;50.00;30.77;;;15.80;99.90;;;;;;4403293;28;658677;-66
2022/07/02 03:47:02;;;;;;;52.30;31.97;;;15.70;99.90;;;;;;4436491;28;659481;-65
2022/07/02 03:49:49;;;;;;;53.07;33.40;;;15.80;99.90;;;;;;4432635;28;658204;-65
2022/07/02 03:52:38;;;;;;;49.53;28.67;;;15.90;99.90;;;;;;4413842;28;658926;-65
2022/07/02 03:55:27;;;;;;;35.60;23.57;;;15.80;99.90;;;;;;4413425;28;658690;-65
2022/07/02 03:58:14;;;;;;;39.47;24.53;;;15.90;99.90;;;;;;4432438;28;658421;-65
2022/07/02 04:01:01;;;;;;;38.43;22.73;;;15.80;99.90;;;;;;4413342;28;658758;-66
2022/07/02 04:03:48;;;;;;;39.37;24.23;;;15.70;99.90;;;;;;4432512;28;660151;-65
2022/07/02 04:06:35;;;;;;;36.57;22.97;;;15.50;99.90;;;;;;4413015;28;658616;-66
2022/07/02 04:09:22;;;;;;;33.50;22.70;;;15.60;99.90;;;;;;4436090;28;658832;-65
2022/07/02 04:12:11;;;;;;;36.23;22.33;;;15.70;99.90;;;;;;4432458;28;658512;-65
2022/07/02 04:14:58;;;;;;;35.00;23.40;;;15.70;99.90;;;;;;4408359;28;658995;-65
2022/07/02 04:17:46;;;;;;;34.97;22.27;;;15.70;99.90;;;;;;4413319;28;658809;-66
2022/07/02 04:20:33;;;;;;;38.60;23.70;;;15.50;99.90;;;;;;4432164;28;658514;-65
2022/07/02 04:23:20;;;;;;;41.43;25.07;;;15.50;99.90;;;;;;4413503;28;659259;-67
2022/07/02 04:26:07;;;;;;;36.30;23.80;;;15.50;99.90;;;;;;4436151;28;659577;-65
2022/07/02 04:28:56;;;;;;;41.33;24.33;;;15.60;99.90;;;;;;4431972;28;658859;-65
2022/07/02 04:31:43;;;;;;;37.50;23.33;;;15.70;99.90;;;;;;4408752;28;658758;-65
2022/07/02 04:34:30;;;;;;;37.90;25.10;;;15.70;99.90;;;;;;4417615;28;658613;-66
2022/07/02 04:37:17;;;;;;;43.15;25.27;;;15.60;99.90;;;;;;4436138;28;658714;-65
2022/07/02 04:40:05;;;;;;;42.83;24.97;;;15.60;99.90;;;;;;4432054;28;658615;-65
2022/07/02 04:42:52;;;;;;;44.80;26.43;;;15.70;99.90;;;;;;4412496;28;659831;-65
2022/07/02 04:45:41;;;;;;;41.07;25.80;;;15.60;99.90;;;;;;4422514;28;658538;-65
2022/07/02 04:48:28;;;;;;;43.73;25.33;;;15.70;99.90;;;;;;4376056;28;658903;-65
2022/07/02 04:51:15;;;;;;;42.67;25.57;;;15.50;99.90;;;;;;4379790;28;658957;-67
2022/07/02 04:54:02;;;;;;;33.03;18.23;;;15.50;99.90;;;;;;4402399;28;659399;-65
2022/07/02 04:56:49;;;;;;;41.30;24.63;;;15.50;99.90;;;;;;4398732;28;658736;-65
2022/07/02 04:59:36;;;;;;;44.83;26.17;;;15.50;99.90;;;;;;4379929;28;659402;-65
2022/07/02 05:02:25;;;;;;;44.47;26.00;;;15.40;99.90;;;;;;4398944;28;659012;-65
2022/07/02 05:05:12;;;;;;;44.67;25.03;;;15.30;99.90;;;;;;4379502;28;659217;-65
2022/07/02 05:07:59;;;;;;;37.53;21.83;;;15.40;99.90;;;;;;4398350;28;659307;-65
2022/07/02 05:10:46;;;;;;;40.63;23.83;;;15.50;99.90;;;;;;4379548;28;658694;-65
2022/07/02 05:13:33;;;;;;;37.13;22.47;;;15.60;99.90;;;;;;4398259;28;658841;-65
2022/07/02 05:16:20;;;;;;;33.43;19.13;;;15.50;99.90;;;;;;4379423;28;658667;-65
2022/07/02 05:19:09;;;;;;;39.93;23.13;;;15.50;99.90;;;;;;4398083;28;660597;-66
2022/07/02 05:21:56;;;;;;;41.87;25.07;;;15.60;99.90;;;;;;4379366;28;658408;-65
2022/07/02 05:24:43;;;;;;;39.70;23.87;;;15.40;99.90;;;;;;4398224;28;659787;-65
2022/07/02 05:27:30;;;;;;;39.10;23.13;;;15.40;99.90;;;;;;4379483;28;658968;-66
2022/07/02 05:30:17;;;;;;;40.67;22.23;;;15.40;99.90;;;;;;4411496;28;658480;-65
2022/07/02 05:33:04;;;;;;;38.87;23.20;;;15.40;99.90;;;;;;4412634;28;658623;-65
2022/07/02 05:35:53;;;;;;;38.23;23.20;;;15.40;99.90;;;;;;4393940;28;658722;-65
2022/07/02 05:38:40;;;;;;;39.10;22.98;;;15.50;99.90;;;;;;4388603;28;658811;-66
2022/07/02 05:41:28;;;;;;;32.00;19.97;;;15.50;99.90;;;;;;4416086;28;659813;-65
2022/07/02 05:44:15;;;;;;;34.70;20.17;;;15.40;99.90;;;;;;4405459;28;658398;-66
2022/07/02 05:47:02;;;;;;;36.00;21.23;;;15.60;99.90;;;;;;4417321;28;658968;-65
2022/07/02 05:49:49;;;;;;;34.47;20.93;;;15.50;99.90;;;;;;4413008;28;659122;-65
2022/07/02 05:52:38;;;;;;;37.37;20.97;;;15.50;99.90;;;;;;4392323;28;659235;-65
2022/07/02 05:55:25;;;;;;;32.90;21.03;;;15.40;99.90;;;;;;4407197;28;658713;-67
2022/07/02 05:58:12;;;;;;;39.15;24.40;;;15.50;99.90;;;;;;4417202;28;659795;-65
2022/07/02 06:00:59;;;;;;;46.40;28.53;;;15.50;99.90;;;;;;4412876;28;658737;-65
2022/07/02 06:03:46;;;;;;;51.97;29.97;;;15.50;99.90;;;;;;4394003;28;659410;-65
2022/07/02 06:09:40;;;;;;;46.83;29.23;;;15.70;99.90;;;;;;4390130;28;659041;-65
2022/07/02 06:12:27;;;;;;;46.00;30.03;;;15.80;99.90;;;;;;4389860;28;659609;-65
2022/07/02 06:15:14;;;;;;;47.23;28.93;;;15.80;99.90;;;;;;4412732;28;658278;-65
2022/07/02 06:18:01;;;;;;;42.97;25.07;;;15.90;99.90;;;;;;4394122;28;658593;-65
2022/07/02 06:20:48;;;;;;;50.40;28.27;;;15.90;99.90;;;;;;4412979;28;659410;-65
2022/07/02 06:23:35;;;;;;;44.27;25.80;;;16.00;99.90;;;;;;4394132;28;658678;-65
2022/07/02 06:26:24;;;;;;;54.47;31.73;;;15.80;99.90;;;;;;4416809;28;658426;-65
2022/07/02 06:29:11;;;;;;;56.57;31.97;;;15.80;99.90;;;;;;4354693;28;1070551;-65
2022/07/02 06:31:58;;;;;;;40.00;24.93;;;15.70;99.90;;;;;;4428611;28;661045;-65
2022/07/02 06:34:45;;;;;;;39.13;24.37;;;15.80;99.90;;;;;;4410873;28;658561;-66
2022/07/02 06:37:33;;;;;;;37.90;23.27;;;15.80;99.90;;;;;;4419558;28;659819;-66
2022/07/02 06:40:20;;;;;;;39.97;23.47;;;15.80;99.90;;;;;;4414859;28;658723;-67
2022/07/02 06:43:09;;;;;;;34.60;23.13;;;15.80;99.90;;;;;;4433774;28;659365;-65
2022/07/02 06:45:56;;;;;;;38.50;21.63;;;15.70;99.90;;;;;;4394211;28;659180;-65
2022/07/02 06:48:43;;;;;;;33.80;22.50;;;15.80;99.90;;;;;;4397419;28;659600;-65
2022/07/02 06:51:30;;;;;;;30.70;21.07;;;15.70;99.90;;;;;;4378186;28;658764;-67
2022/07/02 06:54:17;;;;;;;36.07;22.17;;;15.80;99.90;;;;;;4400958;28;658939;-65
2022/07/02 06:57:05;;;;;;;31.47;21.17;;;15.90;99.90;;;;;;4396822;28;658377;-65
2022/07/02 06:59:53;;;;;;;34.17;22.20;;;15.80;99.90;;;;;;4374310;28;660234;-65
2022/07/02 07:02:40;;;;;;;33.17;20.57;;;15.80;99.90;;;;;;4377904;28;658571;-67
2022/07/02 07:05:27;;;;;;;25.20;17.53;;;15.70;99.90;;;;;;4400521;28;659479;-65
2022/07/02 07:08:15;;;;;;;23.73;16.30;;;15.90;99.90;;;;;;4394518;28;658783;-67
2022/07/02 07:11:02;;;;;;;25.27;17.30;;;15.50;99.90;;;;;;4400280;28;660091;-65
2022/07/02 07:13:49;;;;;;;26.23;17.77;;;15.70;99.90;;;;;;4396704;28;658587;-65
2022/07/02 07:16:38;;;;;;;25.90;16.80;;;15.70;99.90;;;;;;4377927;28;659272;-66
2022/07/02 07:19:25;;;;;;;25.63;16.00;;;15.80;99.90;;;;;;4382240;28;658680;-66
2022/07/02 07:22:13;;;;;;;22.50;15.97;;;15.80;99.90;;;;;;4400793;28;659924;-65
2022/07/02 07:25:00;;;;;;;22.77;16.20;;;15.80;99.90;;;;;;4385445;28;659278;-66
2022/07/02 07:27:48;;;;;;;21.80;15.77;;;15.80;99.90;;;;;;4400567;28;659366;-65
2022/07/02 07:30:35;;;;;;;21.43;15.83;;;15.90;99.90;;;;;;4403419;28;658464;-67
2022/07/02 07:33:24;;;;;;;24.92;17.85;;;15.90;99.90;;;;;;4416430;28;659742;-65
2022/07/02 07:36:11;;;;;;;23.53;17.33;;;15.80;99.90;;;;;;4393834;28;658783;-65
2022/07/02 07:38:59;;;;;;;25.10;16.20;;;15.80;99.90;;;;;;4404061;28;659385;-65
2022/07/02 07:41:46;;;;;;;23.53;18.03;;;15.90;99.90;;;;;;4390428;28;658629;-65
2022/07/02 07:44:34;;;;;;;23.50;17.23;;;16.10;99.90;;;;;;4412432;28;658696;-65
2022/07/02 07:47:21;;;;;;;22.97;17.57;;;16.00;99.90;;;;;;4376363;28;658687;-65
2022/07/02 07:50:10;;;;;;;24.80;15.60;;;16.20;99.90;;;;;;4395162;28;659883;-65
2022/07/02 07:52:57;;;;;;;22.47;16.57;;;16.30;99.90;;;;;;4372413;28;660280;-65
2022/07/02 07:55:45;;;;;;;29.20;19.60;;;16.40;99.90;;;;;;4394579;28;658541;-65
2022/07/02 07:58:34;;;;;;;27.90;18.13;;;16.30;99.90;;;;;;4375918;28;659408;-65
2022/07/02 08:01:21;;;;;;;25.83;19.87;;;16.20;99.90;;;;;;4376444;28;658605;-65
2022/07/02 08:04:08;;;;;;;26.03;19.77;;;16.00;99.90;;;;;;4394824;28;660031;-65
2022/07/02 08:06:57;;;;;;;27.47;20.10;;;16.20;99.90;;;;;;4376370;28;658350;-67
2022/07/02 08:09:44;;;;;;;24.47;18.50;;;16.10;99.90;;;;;;4398874;28;659014;-65
2022/07/02 08:12:31;;;;;;;23.30;16.73;;;16.10;99.90;;;;;;4373973;28;658645;-66
2022/07/02 08:15:18;;;;;;;22.37;16.70;;;16.20;99.90;;;;;;4394878;28;660065;-65
2022/07/02 08:18:05;;;;;;;22.97;16.63;;;16.00;99.90;;;;;;4375923;28;658315;-66
2022/07/02 08:20:52;;;;;;;25.03;15.97;;;16.00;99.90;;;;;;4399084;28;659224;-65
2022/07/02 08:23:41;;;;;;;22.37;15.57;;;16.10;99.90;;;;;;4395084;28;658439;-65
2022/07/02 08:26:28;;;;;;;21.03;15.73;;;16.30;99.90;;;;;;4372064;28;659387;-65
2022/07/02 08:29:15;;;;;;;20.30;15.67;;;16.20;99.90;;;;;;4377297;28;658628;-65
2022/07/02 08:32:03;;;;;;;21.53;16.03;;;16.20;99.90;;;;;;4397966;28;659376;-65
2022/07/02 08:34:50;;;;;;;21.30;14.53;;;16.10;99.90;;;;;;4379299;28;659227;-66
2022/07/02 08:37:38;;;;;;;20.77;15.50;;;16.20;99.90;;;;;;4388086;28;659665;-65
2022/07/02 08:40:27;;;;;;;22.70;16.50;;;16.30;99.90;;;;;;4391701;28;658914;-66
2022/07/02 08:43:16;;;;;;;18.98;14.48;;;16.40;99.90;;;;;;4397743;28;658182;-65
2022/07/02 08:46:04;;;;;;;17.43;13.87;;;16.50;99.90;;;;;;4384660;28;659053;-65
2022/07/02 08:48:51;;;;;;;26.00;14.80;;;16.40;99.90;;;;;;4395946;28;658577;-65
2022/07/02 08:51:38;;;;;;;17.00;14.20;;;16.40;99.90;;;;;;4415114;28;659483;-65
2022/07/02 08:54:25;;;;;;;20.10;14.65;;;16.20;99.90;;;;;;4396013;28;659147;-66
2022/07/02 08:57:14;;;;;;;19.70;13.50;;;16.20;99.90;;;;;;4419082;28;659559;-65
2022/07/02 09:00:01;;;;;;;16.50;13.50;;;16.30;99.90;;;;;;4396079;28;658166;-65
2022/07/02 09:02:50;;;;;;;19.30;13.73;;;16.20;99.90;;;;;;4414890;28;659649;-65
2022/07/02 09:05:38;;;;;;;18.87;13.23;;;16.10;99.90;;;;;;4395577;28;659938;-65
2022/07/02 09:08:25;;;;;;;19.83;13.77;;;16.20;99.90;;;;;;4395540;28;659058;-66
2022/07/02 09:11:12;;;;;;;19.03;14.47;;;16.10;99.90;;;;;;4414966;28;660154;-65
2022/07/02 09:14:01;;;;;;;18.83;13.73;;;16.10;99.90;;;;;;4414996;28;658377;-65
2022/07/02 09:16:48;;;;;;;22.07;14.73;;;16.00;99.90;;;;;;4391644;28;659304;-65
2022/07/02 09:19:36;;;;;;;21.00;14.83;;;16.10;99.90;;;;;;4395752;28;658543;-65
2022/07/02 09:22:31;;;;;;;26.57;16.37;;;16.00;99.90;;;;;;4419123;28;658977;-65
2022/07/02 09:25:20;;;;;;;21.27;15.50;;;16.20;99.90;;;;;;4390365;28;659166;-65
2022/07/02 09:28:07;;;;;;;23.90;17.00;;;16.40;99.90;;;;;;4391465;28;660524;-65
2022/07/02 09:31:03;;;;;;;24.00;18.17;;;16.30;99.90;;;;;;4414163;28;658740;-65
2022/07/02 09:33:50;;;;;;;26.53;17.93;;;16.20;99.90;;;;;;4385380;28;659240;-67
2022/07/02 09:36:37;;;;;;;22.08;16.67;;;16.40;99.90;;;;;;4418207;28;658965;-65
2022/07/02 09:39:29;;;;;;;28.73;18.17;;;16.40;99.90;;;;;;4403065;28;658343;-65
2022/07/02 09:42:24;;;;;;;30.97;20.90;;;16.30;99.90;;;;;;4368553;28;659972;-65
2022/07/02 09:45:11;;;;;;;33.10;20.17;;;16.20;99.90;;;;;;4368517;28;659569;-65
2022/07/02 09:48:02;;;;;;;28.27;20.03;;;16.20;99.90;;;;;;4413885;28;658826;-65
2022/07/02 09:50:49;;;;;;;36.10;21.63;;;16.30;99.90;;;;;;4391405;28;658609;-65
2022/07/02 09:53:46;;;;;;;32.07;22.77;;;16.40;99.90;;;;;;4395494;28;658534;-65
2022/07/02 09:56:33;;;;;;;33.90;22.40;;;16.40;99.90;;;;;;4390007;28;659468;-65
2022/07/02 09:59:21;;;;;;;28.20;20.60;;;16.60;99.90;;;;;;4394742;28;659078;-65
2022/07/02 10:02:20;;;;;;;31.93;21.63;;;16.70;99.90;;;;;;4418167;28;658994;-65
2022/07/02 10:05:09;;;;;;;31.33;18.60;;;16.80;99.90;;;;;;4368174;28;658974;-65
2022/07/02 10:07:57;;;;;;;32.10;20.53;;;16.80;99.90;;;;;;4392980;28;659412;-65
2022/07/02 10:10:44;;;;;;;27.40;20.15;;;16.70;99.90;;;;;;4413480;28;659545;-65
2022/07/02 10:13:31;;;;;;;24.77;18.00;;;16.70;99.90;;;;;;4393751;28;659383;-65
2022/07/02 10:16:18;;;;;;;17.17;12.23;;;17.10;99.90;;;;;;4413409;28;659136;-65
2022/07/02 10:19:05;;;;;;;21.97;14.57;;;17.30;99.90;;;;;;4394617;28;658702;-65
2022/07/02 10:21:54;;;;;;;21.47;15.53;;;17.30;99.90;;;;;;4417694;28;658716;-65
2022/07/02 10:24:41;;;;;;;23.15;15.00;;;17.40;99.90;;;;;;4394799;28;658607;-65
2022/07/02 10:27:29;;;;;;;20.47;14.13;;;17.00;99.90;;;;;;4413193;28;660233;-66
2022/07/02 10:30:18;;;;;;;19.63;13.77;;;17.00;99.90;;;;;;4393820;28;659001;-65
2022/07/02 10:33:15;;;;;;;19.23;13.10;;;16.70;99.90;;;;;;4394767;28;658646;-66
2022/07/02 10:36:03;;;;;;;15.60;10.83;;;16.90;99.90;;;;;;4365891;28;659422;-65
2022/07/02 10:38:58;;;;;;;14.83;10.87;;;17.10;99.90;;;;;;4383274;28;658877;-66
2022/07/02 10:41:45;;;;;;;17.40;11.47;;;17.30;99.90;;;;;;4371532;28;659480;-65
2022/07/02 10:44:36;;;;;;;18.17;12.47;;;17.00;99.90;;;;;;4413359;28;660372;-65
2022/07/02 10:47:26;;;;;;;16.43;12.47;;;17.10;99.90;;;;;;4377056;28;659180;-65
2022/07/02 10:50:13;;;;;;;13.30;9.23;;;17.10;99.90;;;;;;4373026;28;659206;-65
2022/07/02 10:53:00;;;;;;;20.37;10.80;;;17.10;99.90;;;;;;4381216;28;657661;-66
2022/07/02 10:55:59;;;;;;;10.67;9.23;;;17.10;99.90;;;;;;4399849;28;659311;-65
2022/07/02 10:58:46;;;;;;;12.87;9.23;;;16.80;99.90;;;;;;4351488;28;657772;-65
2022/07/02 11:01:33;;;;;;;9.30;7.57;;;17.20;99.90;;;;;;4400903;28;658197;-65
2022/07/02 11:04:21;;;;;;;9.27;7.43;;;17.20;99.90;;;;;;4379370;28;656889;-66
2022/07/02 11:07:09;;;;;;;10.82;6.80;;;17.30;99.90;;;;;;4397599;28;658032;-65
2022/07/02 11:10:04;;;;;;;8.60;7.37;;;17.30;99.90;;;;;;4375494;28;657722;-65
2022/07/02 11:12:53;;;;;;;8.47;6.87;;;17.20;99.90;;;;;;4352859;28;657365;-65
2022/07/02 11:15:41;;;;;;;10.47;7.70;;;17.30;99.90;;;;;;4379013;28;656988;-66
2022/07/02 11:18:28;;;;;;;8.90;6.77;;;17.10;99.90;;;;;;4399978;28;658719;-65
2022/07/02 11:21:15;;;;;;;9.30;7.07;;;17.40;99.90;;;;;;4378952;28;656045;-66
2022/07/02 11:24:02;;;;;;;9.37;7.47;;;17.60;99.90;;;;;;4397584;28;657436;-66
2022/07/02 11:26:50;;;;;;;8.83;6.57;;;17.50;99.90;;;;;;4396051;28;656957;-67
2022/07/02 11:29:39;;;;;;;9.30;6.70;;;17.70;99.90;;;;;;4401411;28;656941;-66
2022/07/02 11:32:36;;;;;;;8.67;7.53;;;17.60;99.90;;;;;;4378829;28;656481;-66
2022/07/02 11:35:23;;;;;;;8.53;6.30;;;17.40;99.90;;;;;;4375237;28;656895;-66
2022/07/02 11:38:10;;;;;;;11.90;8.67;;;17.50;99.90;;;;;;4368299;28;656184;-67
2022/07/02 11:40:57;;;;;;;12.87;9.10;;;17.50;99.90;;;;;;4399245;28;657684;-66
2022/07/02 11:43:45;;;;;;;11.67;7.13;;;17.50;99.90;;;;;;4396096;28;658289;-65
2022/07/02 11:46:33;;;;;;;9.53;6.30;;;17.40;99.90;;;;;;4399875;28;659745;-66
2022/07/02 11:49:21;;;;;;;10.17;6.60;;;17.40;99.90;;;;;;4412676;28;656522;-66
2022/07/02 11:52:09;;;;;;;9.30;5.90;;;17.30;99.90;;;;;;4430398;28;658629;-65
2022/07/02 11:54:56;;;;;;;8.30;6.33;;;17.40;99.90;;;;;;4412985;28;656872;-66
2022/07/02 11:57:43;;;;;;;6.67;5.97;;;17.50;99.90;;;;;;4435588;28;657614;-65
2022/07/02 12:00:31;;;;;;;7.40;5.27;;;17.60;99.90;;;;;;4412790;28;657082;-66
2022/07/02 12:03:20;;;;;;;5.90;4.50;;;17.80;99.90;;;;;;4431775;28;658040;-66
2022/07/02 12:06:07;;;;;;;5.00;4.50;;;17.80;99.90;;;;;;4416303;28;657712;-65
2022/07/02 12:08:54;;;;;;;5.80;4.50;;;18.10;99.90;;;;;;4435073;28;656724;-65
2022/07/02 12:11:42;;;;;;;4.90;4.33;;;18.10;99.90;;;;;;4412346;28;656958;-66
2022/07/02 12:14:30;;;;;;;5.20;4.37;;;18.30;99.90;;;;;;4434781;28;656820;-65
2022/07/02 12:17:18;;;;;;;8.70;5.00;;;18.40;99.90;;;;;;4415801;28;657729;-65
2022/07/02 12:20:07;;;;;;;7.97;6.20;;;18.30;99.90;;;;;;4427823;28;656471;-67
2022/07/02 12:22:54;;;;;;;8.80;6.47;;;18.20;99.90;;;;;;4434672;28;656482;-65
2022/07/02 12:25:45;;;;;;;10.70;8.27;;;18.10;99.90;;;;;;4415563;28;657570;-65
2022/07/02 12:31:47;;;;;;;14.37;10.03;;;17.70;99.90;;;;;;4414016;28;657597;-65
2022/07/02 12:34:39;;;;;;;11.13;8.87;;;17.70;99.90;;;;;;4408888;28;658694;-65
2022/07/02 12:37:28;;;;;;;11.37;8.00;;;18.00;99.90;;;;;;4387467;28;658050;-66
2022/07/02 12:40:17;;;;;;;8.97;6.93;;;18.00;99.90;;;;;;4417988;28;657810;-67
2022/07/02 12:43:05;;;;;;;8.83;7.07;;;17.80;99.90;;;;;;4434048;28;657337;-65
2022/07/02 12:45:52;;;;;;;9.40;5.78;;;17.70;99.90;;;;;;4392014;28;657874;-65
2022/07/02 12:48:44;;;;;;;8.87;4.73;;;17.50;99.90;;;;;;4396716;28;656623;-67
2022/07/02 12:51:31;;;;;;;8.20;6.80;;;17.60;99.90;;;;;;4381287;28;656415;-66
2022/07/02 12:54:19;;;;;;;5.97;4.90;;;17.80;99.90;;;;;;4404058;28;656613;-65
2022/07/02 12:57:13;;;;;;;5.27;4.60;;;18.20;99.90;;;;;;4378365;28;656369;-65
2022/07/02 13:00:00;;;;;;;8.33;6.20;;;18.40;99.90;;;;;;4359619;28;656777;-66
2022/07/02 13:02:49;;;;;;;8.70;6.63;;;18.20;99.90;;;;;;4399996;28;657451;-65
2022/07/02 13:05:37;;;;;;;12.13;7.50;;;18.20;99.90;;;;;;4380749;28;656859;-65
2022/07/02 13:08:25;;;;;;;10.00;8.20;;;18.10;99.90;;;;;;4398652;28;657618;-67
2022/07/02 13:11:14;;;;;;;10.30;7.27;;;18.30;99.90;;;;;;4398959;28;658578;-66
2022/07/02 13:14:01;;;;;;;11.43;7.87;;;18.30;99.90;;;;;;4380500;28;657597;-66
2022/07/02 13:16:48;;;;;;;13.50;8.20;;;18.10;99.90;;;;;;4398729;28;658789;-65
2022/07/02 13:19:37;;;;;;;7.87;6.57;;;18.10;99.90;;;;;;4379972;28;657988;-65
2022/07/02 13:22:26;;;;;;;8.53;6.30;;;17.90;99.90;;;;;;4400141;28;656232;-66
2022/07/02 13:25:13;;;;;;;7.30;5.70;;;18.20;99.90;;;;;;4377560;28;658129;-65
2022/07/02 13:28:02;;;;;;;5.47;4.97;;;18.60;99.90;;;;;;4381362;28;656999;-66
2022/07/02 13:30:49;;;;;;;8.07;6.00;;;19.20;99.90;;;;;;4403575;28;656375;-65
2022/07/02 13:33:36;;;;;;;6.80;5.77;;;19.50;99.90;;;;;;4397275;28;656535;-65
2022/07/02 13:36:23;;;;;;;7.37;6.67;;;19.50;99.90;;;;;;4419800;28;657700;-65
2022/07/02 13:39:10;;;;;;;8.60;7.03;;;19.50;99.90;;;;;;4386971;28;656597;-66
2022/07/02 13:41:58;;;;;;;9.70;7.30;;;19.90;99.90;;;;;;4415881;28;657890;-66
2022/07/02 13:44:46;;;;;;;7.13;6.43;;;19.50;99.90;;;;;;4400611;28;656640;-67
2022/07/02 13:47:34;;;;;;;11.80;8.00;;;19.50;99.90;;;;;;4433158;28;656356;-65
2022/07/02 13:50:22;;;;;;;10.53;6.67;;;19.20;99.90;;;;;;4412771;28;657268;-65
2022/07/02 13:53:10;;;;;;;7.13;5.77;;;19.10;99.90;;;;;;4431882;28;658354;-65
2022/07/02 13:55:57;;;;;;;18.20;7.37;;;19.10;99.90;;;;;;4410148;28;657848;-65
2022/07/02 13:58:44;;;;;;;7.20;5.30;;;19.20;99.90;;;;;;4431623;28;657802;-65
2022/07/02 14:01:33;;;;;;;14.03;8.77;;;19.40;99.90;;;;;;4413626;28;656359;-66
2022/07/02 14:04:20;;;;;;;9.03;7.60;;;18.70;99.90;;;;;;4424571;28;658548;-67
2022/07/02 14:07:07;;;;;;;9.45;5.75;;;18.80;99.90;;;;;;4436817;28;656514;-65
2022/07/02 14:09:55;;;;;;;8.50;6.53;;;19.10;99.90;;;;;;4433083;28;656861;-66
2022/07/02 14:12:42;;;;;;;7.13;5.80;;;19.40;99.90;;;;;;4437029;28;657348;-65
2022/07/02 14:15:30;;;;;;;10.83;7.40;;;19.80;99.90;;;;;;4432289;28;656801;-65
2022/07/02 14:18:19;;;;;;;11.37;7.80;;;19.90;99.90;;;;;;4408310;28;658652;-65